Time;durP1;ratioP1;P1;durP2;ratioP2;P2;SDS_P1;SDS_P2;PMS_P1;PMS_P2;Temp;Humidity;BMP_temperature;BMP_pressure;BME280_temperature;BME280_humidity;BME280_pressure;Samples;Min_cycle;Max_cycle;Signal;HPM_P1;HPM_P2
2021/08/14 00:00:35;;;;;;;13.30;8.10;;;;;;;13.21;91.09;102019.81;2108140;28;20097;-60
2021/08/14 00:01:35;;;;;;;12.10;6.77;;;;;;;13.20;90.78;102018.94;2108133;28;20028;-60
2021/08/14 00:02:36;;;;;;;11.03;8.03;;;;;;;13.20;90.84;102013.69;2108213;28;20020;-59
2021/08/14 00:03:36;;;;;;;11.77;7.73;;;;;;;13.20;91.25;102020.69;2108112;28;20427;-61
2021/08/14 00:04:36;;;;;;;12.63;7.87;;;;;;;13.18;91.07;102027.75;2108099;28;20479;-60
2021/08/14 00:05:37;;;;;;;14.07;7.75;;;;;;;13.16;90.76;102019.94;2108040;28;20477;-60
2021/08/14 00:06:37;;;;;;;12.00;8.27;;;;;;;13.13;91.37;102020.06;2108076;28;20384;-60
2021/08/14 00:07:37;;;;;;;13.03;7.40;;;;;;;13.11;91.49;102020.09;2108142;28;20369;-61
2021/08/14 00:08:37;;;;;;;9.77;8.07;;;;;;;13.10;91.45;102013.16;2108081;28;20099;-60
2021/08/14 00:09:38;;;;;;;10.77;8.07;;;;;;;13.10;91.05;102014.91;2108056;28;20130;-61
2021/08/14 00:10:38;;;;;;;10.73;7.37;;;;;;;13.11;91.58;102012.25;2107994;28;20055;-62
2021/08/14 00:11:38;;;;;;;11.20;8.03;;;;;;;13.14;90.98;102012.13;2108013;28;20051;-60
2021/08/14 00:12:38;;;;;;;11.83;7.07;;;;;;;13.18;90.92;102006.78;2108077;28;20049;-60
2021/08/14 00:13:39;;;;;;;11.53;7.30;;;;;;;13.23;91.16;102012.72;2108015;28;20027;-60
2021/08/14 00:14:39;;;;;;;16.80;7.80;;;;;;;13.25;90.96;102013.53;2108042;28;20093;-59
2021/08/14 00:15:40;;;;;;;13.03;8.47;;;;;;;13.25;91.13;102008.31;2108103;28;20461;-60
2021/08/14 00:16:40;;;;;;;14.82;8.48;;;;;;;13.25;90.97;102016.16;2108024;28;20073;-60
2021/08/14 00:17:40;;;;;;;15.10;7.70;;;;;;;13.25;91.15;102013.53;2108051;28;20052;-60
2021/08/14 00:18:41;;;;;;;19.38;8.93;;;;;;;13.25;91.02;102013.53;2108040;28;20028;-60
2021/08/14 00:19:41;;;;;;;13.97;8.23;;;;;;;13.22;91.27;102013.66;2107939;28;20024;-60
2021/08/14 00:20:41;;;;;;;14.73;8.37;;;;;;;13.21;90.97;102011.94;2107989;28;20031;-59
2021/08/14 00:21:41;;;;;;;8.87;7.37;;;;;;;13.20;91.44;102007.59;2107893;28;20081;-60
2021/08/14 00:22:42;;;;;;;12.80;8.37;;;;;;;13.19;91.41;102014.59;2107986;28;20035;-61
2021/08/14 00:23:42;;;;;;;11.20;7.37;;;;;;;13.20;91.46;102015.44;2108028;28;20384;-60
2021/08/14 00:24:42;;;;;;;11.50;7.37;;;;;;;13.20;91.17;102015.44;2107997;28;20032;-60
2021/08/14 00:25:43;;;;;;;8.60;6.47;;;;;;;13.19;91.25;102017.22;2107921;28;20031;-61
2021/08/14 00:26:43;;;;;;;13.83;8.53;;;;;;;13.18;91.35;102022.53;2107977;28;20047;-61
2021/08/14 00:27:44;;;;;;;11.13;7.70;;;;;;;13.18;91.28;102018.16;2107949;28;20631;-61
2021/08/14 00:28:44;;;;;;;11.38;7.65;;;;;;;13.15;90.96;102007.75;2107978;28;20476;-61
2021/08/14 00:29:45;;;;;;;8.23;6.50;;;;;;;13.11;90.82;102012.25;2107931;28;20028;-61
2021/08/14 00:30:45;;;;;;;10.15;7.88;;;;;;;13.07;91.18;102013.25;2107927;28;20453;-61
2021/08/14 00:31:45;;;;;;;8.43;6.13;;;;;;;13.05;91.22;102008.97;2107842;28;20015;-61
2021/08/14 00:32:45;;;;;;;8.87;7.17;;;;;;;13.00;91.02;102004.75;2107921;28;20024;-60
2021/08/14 00:33:46;;;;;;;9.27;6.57;;;;;;;12.98;91.31;102005.72;2107845;28;20036;-60
2021/08/14 00:34:46;;;;;;;9.30;6.27;;;;;;;12.96;91.56;102002.28;2107126;28;20447;-60
2021/08/14 00:35:46;;;;;;;10.67;8.47;;;;;;;12.95;91.38;102000.59;2107281;28;20170;-60
2021/08/14 00:36:46;;;;;;;8.77;6.57;;;;;;;12.93;91.10;102002.41;2107256;28;20500;-60
2021/08/14 00:37:47;;;;;;;9.57;6.43;;;;;;;12.94;91.47;102004.13;2107237;28;20202;-61
2021/08/14 00:38:47;;;;;;;9.60;7.47;;;;;;;12.95;90.98;102005.81;2107901;28;20055;-60
2021/08/14 00:39:47;;;;;;;10.70;7.70;;;;;;;12.95;90.99;102011.06;2107823;28;20020;-61
2021/08/14 00:40:47;;;;;;;11.60;7.77;;;;;;;12.96;90.96;102004.91;2107850;28;20020;-61
2021/08/14 00:41:50;;;;;;;11.50;8.07;;;;;;;12.96;91.40;102002.28;2107802;28;20028;-60
2021/08/14 00:42:50;;;;;;;9.60;7.88;;;;;;;12.94;91.28;102004.97;2107870;28;20435;-60
2021/08/14 00:43:51;;;;;;;10.37;8.20;;;;;;;12.94;91.25;102004.97;2108088;28;20028;-61
2021/08/14 00:44:52;;;;;;;9.32;7.50;;;;;;;12.93;91.51;102010.28;2107848;28;20132;-60
2021/08/14 00:45:53;;;;;;;14.47;7.80;;;;;;;12.91;91.17;102007.69;2107840;28;20432;-61
2021/08/14 00:46:53;;;;;;;12.65;8.55;;;;;;;12.91;91.04;102004.22;2107846;28;20121;-61
2021/08/14 00:47:53;;;;;;;11.50;8.50;;;;;;;12.91;91.39;102012.94;2107743;28;20059;-61
2021/08/14 00:48:56;;;;;;;15.30;7.73;;;;;;;12.90;91.61;102010.38;2107905;28;20362;-60
2021/08/14 00:49:56;;;;;;;9.18;8.20;;;;;;;12.90;91.50;102010.38;2107675;28;20035;-62
2021/08/14 00:50:57;;;;;;;9.10;8.10;;;;;;;12.87;91.30;102008.72;2107744;28;20024;-61
2021/08/14 00:51:58;;;;;;;9.45;7.32;;;;;;;12.85;91.72;102007.91;2107754;28;20053;-61
2021/08/14 00:52:58;;;;;;;12.63;7.90;;;;;;;12.83;91.68;102010.56;2107041;28;20070;-61
2021/08/14 00:53:58;;;;;;;13.17;8.70;;;;;;;12.81;91.74;102006.28;2107155;28;20354;-61
2021/08/14 00:54:58;;;;;;;11.13;8.97;;;;;;;12.80;91.64;102009.81;2107752;28;20020;-60
2021/08/14 00:55:59;;;;;;;13.33;9.17;;;;;;;12.78;91.39;101999.38;2107663;28;20024;-60
2021/08/14 00:56:59;;;;;;;15.95;8.38;;;;;;;12.77;91.80;101997.69;2107514;28;20062;-61
2021/08/14 00:58:00;;;;;;;13.03;8.67;;;;;;;12.76;91.60;101995.94;2107636;28;20073;-60
2021/08/14 00:59:00;;;;;;;14.23;10.40;;;;;;;12.78;91.80;102002.00;2107743;28;20032;-61
2021/08/14 01:00:01;;;;;;;10.95;7.25;;;;;;;12.78;92.31;101999.38;2107705;28;20024;-61
2021/08/14 01:01:03;;;;;;;16.73;8.77;;;;;;;12.80;92.04;102002.78;2107732;28;20036;-61
2021/08/14 01:02:05;;;;;;;12.60;8.18;;;;;;;12.84;92.54;102001.81;2107579;28;20024;-61
2021/08/14 01:03:06;;;;;;;12.63;9.15;;;;;;;12.86;92.57;101997.38;2107005;28;20516;-61
2021/08/14 01:04:08;;;;;;;11.23;8.85;;;;;;;12.87;92.38;101993.84;2107017;28;20027;-60
2021/08/14 01:05:11;;;;;;;17.70;7.53;;;;;;;12.88;92.55;102003.44;2107602;28;20024;-60
2021/08/14 01:06:14;;;;;;;12.90;9.05;;;;;;;12.87;92.29;101999.06;2107629;28;20043;-60
2021/08/14 01:07:16;;;;;;;12.30;8.52;;;;;;;12.87;91.74;101999.06;2107638;28;20024;-60
2021/08/14 01:08:16;;;;;;;14.63;9.63;;;;;;;12.87;91.92;101996.44;2107675;28;20023;-61
2021/08/14 01:09:17;;;;;;;12.77;9.75;;;;;;;12.84;92.33;102001.81;2107673;28;20016;-60
2021/08/14 01:10:17;;;;;;;12.10;9.77;;;;;;;12.86;92.49;102002.59;2107558;28;20107;-60
2021/08/14 01:11:17;;;;;;;13.32;9.43;;;;;;;12.88;91.75;101995.56;2107558;28;20036;-60
2021/08/14 01:12:18;;;;;;;14.33;9.47;;;;;;;12.87;91.78;101999.06;2107596;28;20024;-61
2021/08/14 01:13:18;;;;;;;10.57;8.03;;;;;;;12.87;91.93;101998.22;2107522;28;20016;-60
2021/08/14 01:14:18;;;;;;;10.30;8.57;;;;;;;12.86;92.00;102005.22;2107551;28;20020;-61
2021/08/14 01:15:19;;;;;;;13.10;8.43;;;;;;;12.83;92.19;102002.69;2107524;28;20420;-61
2021/08/14 01:16:19;;;;;;;10.70;8.07;;;;;;;12.80;91.90;102000.19;2107570;28;20432;-60
2021/08/14 01:17:19;;;;;;;12.93;8.43;;;;;;;12.78;92.08;102004.63;2107501;28;20031;-60
2021/08/14 01:18:20;;;;;;;18.90;9.30;;;;;;;12.77;92.40;102000.31;2106963;28;20051;-60
2021/08/14 01:19:20;;;;;;;13.30;9.30;;;;;;;12.73;92.51;101996.91;2106986;28;20051;-61
2021/08/14 01:20:21;;;;;;;16.13;9.73;;;;;;;12.70;92.25;101994.38;2107468;28;20020;-60
2021/08/14 01:21:22;;;;;;;9.57;8.13;;;;;;;12.68;91.99;101997.97;2107555;28;20105;-60
2021/08/14 01:22:23;;;;;;;13.70;9.93;;;;;;;12.66;92.41;101994.56;2107410;28;20537;-60
2021/08/14 01:23:23;;;;;;;15.17;8.00;;;;;;;12.63;92.19;101995.53;2107514;28;20069;-61
2021/08/14 01:24:23;;;;;;;11.30;8.67;;;;;;;12.64;91.87;102001.59;2107571;28;20500;-61
2021/08/14 01:25:23;;;;;;;10.83;8.93;;;;;;;12.64;92.43;101996.34;2107567;28;20456;-60
2021/08/14 01:26:24;;;;;;;15.50;10.67;;;;;;;12.61;92.15;101998.19;2107477;28;20024;-61
2021/08/14 01:27:24;;;;;;;9.30;8.40;;;;;;;12.62;92.25;101994.66;2107424;28;20099;-61
2021/08/14 01:28:25;;;;;;;12.67;7.77;;;;;;;12.61;92.30;101992.09;2107609;28;20023;-60
2021/08/14 01:29:25;;;;;;;15.23;10.77;;;;;;;12.62;92.46;101989.41;2107462;28;20023;-61
2021/08/14 01:30:26;;;;;;;12.90;9.55;;;;;;;12.65;92.77;102004.16;2107513;28;20024;-61
2021/08/14 01:31:26;;;;;;;11.70;9.10;;;;;;;12.65;92.39;101993.69;2107419;28;20023;-63
2021/08/14 01:32:27;;;;;;;12.57;9.93;;;;;;;12.69;92.92;101994.47;2107450;28;20389;-61
2021/08/14 01:33:29;;;;;;;11.98;10.10;;;;;;;12.69;93.00;101986.63;2107340;28;20024;-62
2021/08/14 01:34:30;;;;;;;12.80;9.50;;;;;;;12.72;92.87;101983.88;2107353;28;20024;-61
2021/08/14 01:35:30;;;;;;;15.37;10.30;;;;;;;12.73;92.48;101990.84;2107326;28;20331;-60
2021/08/14 01:36:30;;;;;;;11.93;9.13;;;;;;;12.72;92.24;101987.34;2107486;28;20202;-60
2021/08/14 01:37:31;;;;;;;11.30;9.10;;;;;;;12.77;92.56;101984.59;2107391;28;20056;-60
2021/08/14 01:38:31;;;;;;;15.70;8.65;;;;;;;12.82;92.11;101982.66;2107431;28;20031;-61
2021/08/14 01:39:32;;;;;;;18.10;9.73;;;;;;;12.87;91.93;101975.50;2107345;28;20030;-59
2021/08/14 01:40:33;;;;;;;17.70;10.30;;;;;;;12.92;92.78;101971.84;2107332;28;20059;-61
2021/08/14 01:41:33;;;;;;;12.25;10.05;;;;;;;12.94;92.40;101977.91;2107343;28;20185;-60
2021/08/14 01:42:33;;;;;;;16.30;9.73;;;;;;;12.94;92.32;101981.41;2107368;28;20042;-60
2021/08/14 01:43:54;;;;;;;15.93;10.87;;;;;;;12.95;92.62;101979.63;2107338;28;20469;-61
2021/08/14 01:44:54;;;;;;;12.60;9.82;;;;;;;12.94;92.47;101980.53;2107395;28;20051;-61
2021/08/14 01:45:54;;;;;;;14.67;9.77;;;;;;;12.95;92.22;101982.25;2107312;28;20020;-60
2021/08/14 01:46:55;;;;;;;13.77;10.53;;;;;;;12.96;92.60;101983.94;2107227;28;20085;-60
2021/08/14 01:47:55;;;;;;;17.15;11.02;;;;;;;12.97;91.92;101983.06;2107413;28;20028;-61
2021/08/14 01:48:55;;;;;;;12.40;11.07;;;;;;;12.96;92.21;101982.19;2107339;28;20042;-60
2021/08/14 01:49:56;;;;;;;13.10;11.03;;;;;;;12.97;91.96;101983.06;2107185;28;20032;-61
2021/08/14 01:50:56;;;;;;;17.30;9.73;;;;;;;12.97;92.20;101980.44;2107262;28;20024;-61
2021/08/14 01:51:56;;;;;;;15.80;10.17;;;;;;;12.96;92.18;101986.56;2107261;28;20028;-61
2021/08/14 01:52:56;;;;;;;15.00;10.03;;;;;;;12.93;92.22;101986.69;2107256;28;20045;-60
2021/08/14 01:53:59;;;;;;;14.17;9.57;;;;;;;12.89;92.13;101978.06;2107349;28;20031;-61
2021/08/14 01:54:59;;;;;;;15.63;10.75;;;;;;;12.88;92.39;101979.84;2107272;28;20027;-60
2021/08/14 01:55:59;;;;;;;16.10;9.40;;;;;;;12.84;91.98;101978.25;2107256;28;20044;-60
2021/08/14 01:56:59;;;;;;;14.53;10.00;;;;;;;12.81;91.97;101978.34;2106573;28;20430;-61
2021/08/14 01:57:59;;;;;;;17.13;11.23;;;;;;;12.78;92.00;101967.97;2098210;28;20489;-60
2021/08/14 01:59:01;;;;;;;15.10;9.60;;;;;;;12.78;92.22;101973.19;2106558;28;20055;-60
2021/08/14 02:00:01;;;;;;;17.17;11.23;;;;;;;12.79;92.27;101967.03;2107318;28;20162;-60
2021/08/14 02:01:01;;;;;;;20.47;10.60;;;;;;;12.80;92.11;101971.38;2107201;28;20392;-60
2021/08/14 02:02:03;;;;;;;21.03;10.40;;;;;;;12.81;92.44;101972.22;2107129;28;20032;-60
2021/08/14 02:03:03;;;;;;;14.13;11.52;;;;;;;12.82;92.48;101968.69;2107442;28;20059;-61
2021/08/14 02:04:04;;;;;;;19.90;10.73;;;;;;;12.82;92.44;101973.94;2107214;28;20035;-61
2021/08/14 02:05:04;;;;;;;17.95;10.88;;;;;;;12.81;92.37;101959.13;2107185;28;20032;-60
2021/08/14 02:06:08;;;;;;;14.82;9.32;;;;;;;12.80;92.54;101960.88;2106459;28;20062;-61
2021/08/14 02:07:08;;;;;;;16.90;10.30;;;;;;;12.81;92.62;101967.88;2106636;28;20477;-61
2021/08/14 02:08:08;;;;;;;17.33;11.30;;;;;;;12.82;92.42;101963.47;2106734;28;20024;-61
2021/08/14 02:09:09;;;;;;;16.63;10.57;;;;;;;12.83;92.69;101971.28;2107183;28;20052;-62
2021/08/14 02:10:10;;;;;;;16.67;10.20;;;;;;;12.84;92.45;101967.75;2107203;28;20031;-60
2021/08/14 02:11:11;;;;;;;;;;;;;;;12.82;92.86;101966.06;2107360;28;20090;-61
2021/08/14 02:12:12;;;;;;;15.38;9.48;;;;;;;12.82;92.60;101969.56;2107083;28;19931;-60
2021/08/14 02:13:12;;;;;;;12.97;9.97;;;;;;;12.81;92.74;101967.00;2107113;28;20082;-61
2021/08/14 02:14:12;;;;;;;15.73;9.67;;;;;;;12.80;92.32;101971.38;2107166;28;20031;-61
2021/08/14 02:15:13;;;;;;;19.48;11.68;;;;;;;12.81;92.33;101973.09;2107131;28;20012;-61
2021/08/14 02:16:14;;;;;;;14.60;10.23;;;;;;;12.82;92.29;101966.94;2107095;28;20498;-61
2021/08/14 02:17:14;;;;;;;20.25;11.10;;;;;;;12.82;92.07;101964.31;2106456;28;20032;-61
2021/08/14 02:18:14;;;;;;;20.63;10.53;;;;;;;12.82;92.30;101963.47;2106462;28;20130;-60
2021/08/14 02:19:14;;;;;;;12.97;11.00;;;;;;;12.82;92.69;101963.47;2106561;28;20055;-62
2021/08/14 02:20:15;;;;;;;12.30;9.70;;;;;;;12.80;92.56;101955.66;2106356;28;20016;-60
2021/08/14 02:21:15;;;;;;;23.43;11.77;;;;;;;12.82;92.56;101959.09;2106490;28;20417;-60
2021/08/14 02:22:15;;;;;;;16.00;9.98;;;;;;;12.83;92.38;101963.41;2107097;28;20488;-61
2021/08/14 02:23:16;;;;;;;17.67;11.40;;;;;;;12.84;92.30;101954.66;2107004;28;20046;-60
2021/08/14 02:24:16;;;;;;;17.53;10.67;;;;;;;12.84;92.46;101952.03;2107039;28;20528;-61
2021/08/14 02:25:16;;;;;;;18.27;10.87;;;;;;;12.82;92.57;101947.75;2107194;28;20362;-60
2021/08/14 02:26:17;;;;;;;18.00;11.13;;;;;;;12.83;91.98;101952.94;2107015;28;20023;-61
2021/08/14 02:27:17;;;;;;;12.68;10.02;;;;;;;12.83;92.19;101950.31;2107150;28;20020;-61
2021/08/14 02:28:18;;;;;;;17.40;8.93;;;;;;;12.82;92.40;101946.00;2107039;28;20043;-60
2021/08/14 02:29:18;;;;;;;16.70;11.23;;;;;;;12.84;91.95;101948.56;2107029;28;20020;-60
2021/08/14 02:30:18;;;;;;;13.07;9.90;;;;;;;12.83;91.86;101954.72;2106962;28;20024;-60
2021/08/14 02:31:18;;;;;;;12.77;10.23;;;;;;;12.81;91.94;101946.91;2106388;28;20451;-61
2021/08/14 02:32:19;;;;;;;17.03;10.30;;;;;;;12.81;92.19;101948.66;2106328;28;20058;-60
2021/08/14 02:33:19;;;;;;;20.27;11.03;;;;;;;12.82;92.11;101955.59;2106927;28;20028;-60
2021/08/14 02:34:19;;;;;;;14.00;9.90;;;;;;;12.82;92.17;101952.97;2107033;28;20472;-60
2021/08/14 02:35:20;;;;;;;23.47;11.57;;;;;;;12.82;92.50;101948.59;2106189;28;20016;-60
2021/08/14 02:36:21;;;;;;;15.53;10.37;;;;;;;12.80;92.30;101941.72;2106398;28;20470;-60
2021/08/14 02:37:21;;;;;;;13.23;9.45;;;;;;;12.81;92.30;101951.28;2106285;28;20103;-60
2021/08/14 02:38:21;;;;;;;13.63;10.20;;;;;;;12.82;92.25;101952.97;2106407;28;20043;-60
2021/08/14 02:39:21;;;;;;;14.63;10.43;;;;;;;12.83;91.78;101952.94;2106332;28;20032;-61
2021/08/14 02:40:22;;;;;;;16.23;9.07;;;;;;;12.84;92.21;101954.66;2106376;28;20063;-60
2021/08/14 02:41:22;;;;;;;14.60;10.68;;;;;;;12.83;91.56;101949.47;2107009;28;20059;-60
2021/08/14 02:42:22;;;;;;;21.43;11.03;;;;;;;12.84;91.27;101952.03;2106989;28;20065;-61
2021/08/14 02:43:23;;;;;;;13.37;10.67;;;;;;;12.87;91.60;101951.06;2106890;28;20017;-60
2021/08/14 02:44:23;;;;;;;14.48;9.25;;;;;;;12.88;91.64;101953.66;2106853;28;20020;-60
2021/08/14 02:45:23;;;;;;;17.80;10.20;;;;;;;12.87;91.56;101944.06;2106936;28;20431;-60
2021/08/14 02:46:23;;;;;;;13.53;9.77;;;;;;;12.87;91.54;101941.44;2107007;28;20032;-61
2021/08/14 02:47:24;;;;;;;14.13;9.27;;;;;;;12.87;91.06;101945.84;2106101;28;20024;-60
2021/08/14 02:48:24;;;;;;;14.63;9.20;;;;;;;12.87;91.16;101941.44;2106444;28;20027;-60
2021/08/14 02:49:24;;;;;;;12.80;9.87;;;;;;;12.86;90.72;101944.97;2106898;28;20099;-60
2021/08/14 02:50:24;;;;;;;12.37;8.67;;;;;;;12.85;91.24;101943.28;2106817;28;20012;-60
2021/08/14 02:51:25;;;;;;;12.63;9.07;;;;;;;12.84;91.19;101944.19;2106850;28;20031;-60
2021/08/14 02:52:25;;;;;;;12.37;7.33;;;;;;;12.84;90.49;101944.19;2106856;28;20023;-60
2021/08/14 02:53:25;;;;;;;16.03;8.77;;;;;;;12.85;91.07;101945.88;2106800;28;20020;-61
2021/08/14 02:54:25;;;;;;;10.20;8.00;;;;;;;12.85;91.07;101932.78;2106834;28;20070;-60
2021/08/14 02:55:26;;;;;;;15.97;8.30;;;;;;;12.86;90.26;101934.50;2106173;28;20017;-62
2021/08/14 02:56:26;;;;;;;14.37;9.83;;;;;;;12.88;90.88;101943.16;2106183;28;20485;-60
2021/08/14 02:57:26;;;;;;;16.27;7.37;;;;;;;12.90;90.53;101939.63;2106303;28;20408;-61
2021/08/14 02:58:27;;;;;;;14.57;7.77;;;;;;;12.90;90.60;101940.47;2106835;28;20126;-62
2021/08/14 02:59:27;;;;;;;11.95;8.45;;;;;;;12.90;90.19;101945.72;2106745;28;20012;-60
2021/08/14 03:00:29;;;;;;;15.43;7.70;;;;;;;12.88;90.24;101937.94;2106801;28;20551;-60
2021/08/14 03:01:29;;;;;;;11.75;7.35;;;;;;;12.90;89.78;101944.88;2106113;28;20031;-60
2021/08/14 03:02:29;;;;;;;13.80;9.73;;;;;;;12.87;89.74;101941.44;2106260;28;20078;-62
2021/08/14 03:03:30;;;;;;;13.57;9.60;;;;;;;12.87;90.39;101937.97;2106184;28;20063;-60
2021/08/14 03:04:30;;;;;;;12.77;8.00;;;;;;;12.85;89.67;101937.16;2106253;28;20023;-59
2021/08/14 03:05:30;;;;;;;18.40;9.23;;;;;;;12.84;90.02;101941.56;2106720;28;20027;-61
2021/08/14 03:06:31;;;;;;;14.15;9.25;;;;;;;12.83;90.13;101945.06;2106893;28;20059;-61
2021/08/14 03:07:32;;;;;;;12.88;8.50;;;;;;;12.82;89.66;101939.88;2106803;28;20051;-60
2021/08/14 03:08:32;;;;;;;13.80;9.07;;;;;;;12.82;90.08;101938.13;2106847;28;20424;-60
2021/08/14 03:09:32;;;;;;;11.03;7.93;;;;;;;12.84;90.17;101943.31;2106790;28;20035;-61
2021/08/14 03:10:32;;;;;;;11.10;8.10;;;;;;;12.86;89.80;101944.09;2106788;28;20479;-60
2021/08/14 03:11:33;;;;;;;12.60;8.03;;;;;;;12.88;89.63;101942.31;2106587;28;20408;-60
2021/08/14 03:12:33;;;;;;;15.60;9.50;;;;;;;12.87;89.56;101936.19;2106830;28;20442;-60
2021/08/14 03:13:33;;;;;;;17.00;8.67;;;;;;;12.85;89.39;101945.88;2106152;28;20373;-60
2021/08/14 03:14:34;;;;;;;13.23;8.37;;;;;;;12.87;89.07;101943.22;2097795;28;20071;-61
2021/08/14 03:15:34;;;;;;;11.63;8.15;;;;;;;12.84;89.71;101940.69;2097803;28;20112;-60
2021/08/14 03:16:35;;;;;;;17.52;9.30;;;;;;;12.83;88.61;101941.63;2106203;28;20020;-60
2021/08/14 03:17:35;;;;;;;12.57;8.40;;;;;;;12.82;89.26;101943.38;2106780;28;20059;-60
2021/08/14 03:18:35;;;;;;;11.77;7.67;;;;;;;12.82;89.01;101940.75;2106824;28;20028;-60
2021/08/14 03:19:35;;;;;;;14.40;8.07;;;;;;;12.80;89.28;101934.69;2106109;28;20046;-61
2021/08/14 03:20:36;;;;;;;14.53;8.70;;;;;;;12.82;89.08;101940.75;2106904;28;20056;-60
2021/08/14 03:21:36;;;;;;;19.57;8.87;;;;;;;12.81;89.47;101935.56;2108467;28;20028;-61
2021/08/14 03:22:36;;;;;;;11.33;7.97;;;;;;;12.79;88.98;101935.59;2108631;28;20042;-61
2021/08/14 03:23:37;;;;;;;14.47;8.77;;;;;;;12.76;88.96;101935.72;2107779;28;20481;-60
2021/08/14 03:24:37;;;;;;;14.87;9.03;;;;;;;12.77;89.41;101932.19;2107865;28;20027;-59
2021/08/14 03:25:38;;;;;;;12.52;7.43;;;;;;;12.79;89.13;101942.63;2107870;28;20031;-60
2021/08/14 03:26:38;;;;;;;12.20;7.37;;;;;;;12.75;89.48;101931.38;2108459;28;20039;-61
2021/08/14 03:27:38;;;;;;;16.50;7.40;;;;;;;12.75;89.32;101931.38;2107800;28;20018;-60
2021/08/14 03:28:39;;;;;;;11.83;8.60;;;;;;;12.72;89.32;101926.25;2099378;28;20020;-60
2021/08/14 03:29:39;;;;;;;11.83;8.47;;;;;;;12.70;89.43;101930.69;2107856;28;20051;-61
2021/08/14 03:30:39;;;;;;;11.57;7.77;;;;;;;12.72;88.79;101928.88;2107739;28;20416;-60
2021/08/14 03:31:39;;;;;;;14.07;8.27;;;;;;;12.72;89.40;101928.88;2107848;28;20024;-60
2021/08/14 03:32:40;;;;;;;15.57;8.57;;;;;;;12.71;88.82;101930.66;2108391;28;20059;-60
2021/08/14 03:33:40;;;;;;;15.70;9.45;;;;;;;12.72;88.92;101931.47;2108347;28;20024;-60
2021/08/14 03:34:41;;;;;;;12.23;8.70;;;;;;;12.71;89.09;101924.53;2108293;28;20024;-60
2021/08/14 03:35:41;;;;;;;13.67;8.63;;;;;;;12.67;88.85;101928.19;2107612;28;20028;-60
2021/08/14 03:36:41;;;;;;;11.93;7.80;;;;;;;12.65;88.71;101927.34;2107752;28;20115;-60
2021/08/14 03:37:42;;;;;;;11.83;9.70;;;;;;;12.61;89.15;101924.88;2108348;28;20084;-60
2021/08/14 03:38:42;;;;;;;11.75;8.60;;;;;;;12.59;88.78;101928.44;2108320;28;20023;-60
2021/08/14 03:39:42;;;;;;;15.00;9.15;;;;;;;12.57;89.00;101927.63;2108324;28;20031;-60
2021/08/14 03:40:43;;;;;;;15.03;8.63;;;;;;;12.57;89.37;101932.88;2108334;28;20020;-61
2021/08/14 03:41:43;;;;;;;15.80;9.30;;;;;;;12.58;89.12;101930.19;2108370;28;20100;-59
2021/08/14 03:42:44;;;;;;;14.07;8.70;;;;;;;12.58;89.29;101930.19;2108255;28;20052;-59
2021/08/14 03:43:44;;;;;;;12.03;8.70;;;;;;;12.58;89.05;101929.34;2108384;28;20016;-60
2021/08/14 03:44:44;;;;;;;15.33;8.97;;;;;;;12.57;89.60;101931.13;2107796;28;20407;-60
2021/08/14 03:45:46;;;;;;;14.00;8.77;;;;;;;12.60;88.97;101933.59;2107683;28;20409;-60
2021/08/14 03:46:47;;;;;;;13.93;8.75;;;;;;;12.62;89.38;101926.56;2108323;28;20028;-60
2021/08/14 03:47:47;;;;;;;13.90;8.43;;;;;;;12.61;88.55;101927.50;2107483;28;20394;-61
2021/08/14 03:48:47;;;;;;;11.50;7.63;;;;;;;12.61;88.89;101932.72;2107742;28;20031;-60
2021/08/14 03:49:47;;;;;;;19.27;9.03;;;;;;;12.62;88.92;101930.94;2108203;28;20016;-60
2021/08/14 03:50:48;;;;;;;15.50;9.40;;;;;;;12.60;88.74;101931.00;2108285;28;20469;-61
2021/08/14 03:51:48;;;;;;;15.77;8.33;;;;;;;12.57;88.97;101925.88;2108244;28;20053;-60
2021/08/14 03:52:48;;;;;;;13.30;8.03;;;;;;;12.56;88.90;101931.16;2108238;28;20024;-60
2021/08/14 03:53:49;;;;;;;15.67;8.53;;;;;;;12.53;89.23;101926.03;2108127;28;20030;-61
2021/08/14 03:54:49;;;;;;;13.50;8.32;;;;;;;12.50;89.31;101921.75;2107564;28;20028;-59
2021/08/14 03:55:49;;;;;;;13.27;8.80;;;;;;;12.49;88.98;101926.13;2107617;28;20028;-60
2021/08/14 03:56:51;;;;;;;12.55;7.97;;;;;;;12.48;89.16;101926.16;2108240;28;20430;-60
2021/08/14 03:57:51;;;;;;;14.88;8.00;;;;;;;12.49;89.13;101925.28;2108132;28;20024;-60
2021/08/14 03:58:52;;;;;;;13.13;7.43;;;;;;;12.47;89.75;101922.72;2108146;28;20020;-60
2021/08/14 03:59:52;;;;;;;13.27;6.83;;;;;;;12.48;89.34;101928.78;2108066;28;20085;-59
2021/08/14 04:00:52;;;;;;;9.93;5.70;;;;;;;12.47;89.31;101925.34;2107513;28;20074;-61
2021/08/14 04:01:52;;;;;;;12.10;6.83;;;;;;;12.47;89.49;101916.59;2107410;28;20020;-60
2021/08/14 04:02:53;;;;;;;14.93;7.43;;;;;;;12.47;89.27;101929.69;2107583;28;20032;-60
2021/08/14 04:03:53;;;;;;;13.77;6.40;;;;;;;12.46;89.12;101935.84;2108127;28;20032;-59
2021/08/14 04:04:53;;;;;;;14.37;6.40;;;;;;;12.45;89.23;101931.50;2108084;28;20043;-59
2021/08/14 04:05:54;;;;;;;12.67;7.13;;;;;;;12.46;89.07;101925.38;2108128;28;20024;-60
2021/08/14 04:06:54;;;;;;;18.10;8.93;;;;;;;12.46;88.94;101925.38;2108122;28;20392;-60
2021/08/14 04:07:54;;;;;;;13.67;7.80;;;;;;;12.47;88.75;101927.09;2108125;28;20063;-60
2021/08/14 04:08:55;;;;;;;8.45;6.63;;;;;;;12.45;89.15;101934.97;2108153;28;20037;-59
2021/08/14 04:09:55;;;;;;;11.87;9.07;;;;;;;12.44;89.10;101933.28;2108118;28;20027;-60
2021/08/14 04:10:56;;;;;;;9.63;7.77;;;;;;;12.43;89.02;101935.94;2107928;28;20110;-60
2021/08/14 04:11:56;;;;;;;12.88;7.55;;;;;;;12.42;88.45;101940.31;2107266;28;20042;-61
2021/08/14 04:12:56;;;;;;;12.53;6.83;;;;;;;12.43;88.89;101939.44;2107508;28;20031;-60
2021/08/14 04:13:56;;;;;;;17.63;9.07;;;;;;;12.44;89.25;101937.66;2108068;28;20024;-60
2021/08/14 04:14:59;;;;;;;14.47;8.13;;;;;;;12.41;88.94;101938.59;2108100;28;20103;-61
2021/08/14 04:15:59;;;;;;;15.35;8.25;;;;;;;12.40;89.22;101936.91;2108061;28;20074;-60
2021/08/14 04:16:59;;;;;;;13.70;7.90;;;;;;;12.42;88.71;101936.84;2108152;28;20142;-60
2021/08/14 04:18:00;;;;;;;14.70;8.73;;;;;;;12.42;89.08;101939.47;2108166;28;20277;-60
2021/08/14 04:19:00;;;;;;;16.57;8.80;;;;;;;12.43;88.93;101946.41;2107988;28;20077;-60
2021/08/14 04:20:01;;;;;;;12.40;7.40;;;;;;;12.42;88.61;101944.72;2108000;28;20056;-58
2021/08/14 04:21:01;;;;;;;13.60;7.57;;;;;;;12.41;88.78;101937.75;2107913;28;20038;-60
2021/08/14 04:22:02;;;;;;;13.90;8.02;;;;;;;12.39;88.71;101939.56;2108010;28;20487;-60
2021/08/14 04:23:03;;;;;;;15.18;8.07;;;;;;;12.40;88.73;101941.28;2107931;28;20047;-60
2021/08/14 04:24:03;;;;;;;17.83;8.95;;;;;;;12.39;89.17;101939.56;2107871;28;20069;-60
2021/08/14 04:25:05;;;;;;;12.45;6.57;;;;;;;12.40;88.58;101946.50;2107998;28;20028;-60
2021/08/14 04:26:05;;;;;;;12.07;6.90;;;;;;;12.39;88.53;101939.56;2107256;28;20024;-60
2021/08/14 04:27:05;;;;;;;12.67;6.57;;;;;;;12.39;88.90;101939.56;2107406;28;20028;-59
2021/08/14 04:28:06;;;;;;;12.97;6.80;;;;;;;12.36;88.84;101936.13;2107226;28;20023;-61
2021/08/14 04:29:06;;;;;;;13.10;7.37;;;;;;;12.34;88.52;101932.72;2107377;28;20121;-61
2021/08/14 04:30:06;;;;;;;12.53;6.20;;;;;;;12.33;88.94;101940.63;2107923;28;20099;-60
2021/08/14 04:31:07;;;;;;;12.52;7.60;;;;;;;12.32;88.89;101934.53;2107412;28;20020;-59
2021/08/14 04:32:07;;;;;;;11.20;6.43;;;;;;;12.29;88.56;101932.03;2107798;28;20031;-60
2021/08/14 04:33:07;;;;;;;13.27;7.43;;;;;;;12.31;88.87;101934.56;2107173;28;20024;-61
2021/08/14 04:34:08;;;;;;;9.87;8.17;;;;;;;12.30;89.14;101938.97;2107380;28;20139;-60
2021/08/14 04:35:10;;;;;;;12.50;8.23;;;;;;;12.29;89.11;101934.66;2107780;28;20019;-60
2021/08/14 04:36:11;;;;;;;12.40;6.38;;;;;;;12.28;88.95;101935.53;2107779;28;20366;-59
2021/08/14 04:37:13;;;;;;;10.57;6.13;;;;;;;12.27;89.27;101925.09;2107890;28;20158;-60
2021/08/14 04:38:13;;;;;;;8.93;5.72;;;;;;;12.27;89.00;101933.81;2107868;28;20027;-60